createdAt,value
2019-03-06T00:00:33.388Z,1.40
2019-03-06T00:03:06.283Z,1.33
2019-03-06T00:05:36.488Z,2.40
2019-03-06T00:08:06.663Z,1.00
2019-03-06T00:10:36.857Z,1.27
2019-03-06T00:13:07.039Z,1.30
2019-03-06T00:15:38.251Z,0.90
2019-03-06T00:18:08.407Z,1.13
2019-03-06T00:20:39.029Z,1.03
2019-03-06T00:23:09.231Z,1.20
2019-03-06T00:25:39.621Z,1.10
2019-03-06T00:28:09.862Z,1.00
2019-03-06T00:30:40.424Z,1.40
2019-03-06T00:33:10.807Z,1.10
2019-03-06T00:35:44.521Z,1.10
2019-03-06T00:38:14.659Z,1.00
2019-03-06T00:40:50.062Z,1.70
2019-03-06T00:43:21.266Z,1.50
2019-03-06T00:45:52.714Z,1.30
2019-03-06T00:48:25.908Z,1.10
2019-03-06T00:50:56.132Z,1.30
2019-03-06T00:53:26.541Z,1.77
2019-03-06T00:55:57.132Z,2.40
2019-03-06T00:58:27.268Z,3.07
2019-03-06T01:00:58.070Z,3.20
2019-03-06T01:03:28.438Z,3.33
2019-03-06T01:05:58.628Z,2.63
2019-03-06T01:08:28.950Z,2.50
2019-03-06T01:10:59.466Z,1.97
2019-03-06T01:13:29.698Z,2.23
2019-03-06T01:16:00.190Z,1.97
2019-03-06T01:18:34.469Z,1.40
2019-03-06T01:21:04.995Z,2.30
2019-03-06T01:23:35.543Z,1.40
2019-03-06T01:26:05.698Z,1.50
2019-03-06T01:28:37.715Z,1.00
2019-03-06T01:31:10.870Z,1.27
2019-03-06T01:34:03.496Z,1.30
2019-03-06T01:36:58.466Z,1.70
2019-03-06T01:39:54.295Z,1.23
2019-03-06T01:42:49.551Z,1.17
2019-03-06T01:45:20.381Z,0.97
2019-03-06T01:47:50.622Z,1.10
2019-03-06T01:50:21.126Z,1.27
2019-03-06T01:52:51.384Z,0.83
2019-03-06T01:55:21.782Z,1.00
2019-03-06T01:57:52.114Z,1.20
2019-03-06T02:00:22.448Z,1.80
2019-03-06T02:02:52.719Z,2.00
2019-03-06T02:05:23.485Z,1.73
2019-03-06T02:07:53.952Z,1.60
2019-03-06T02:10:24.123Z,1.50
2019-03-06T02:12:54.379Z,1.40
2019-03-06T02:15:24.878Z,1.20
2019-03-06T02:17:55.595Z,1.00
2019-03-06T02:20:26.042Z,1.20
2019-03-06T02:22:56.350Z,0.80
2019-03-06T02:25:26.798Z,0.93
2019-03-06T02:27:57.108Z,1.07
2019-03-06T02:30:27.743Z,0.70
2019-03-06T02:32:58.014Z,1.10
2019-03-06T02:35:28.293Z,1.00
2019-03-06T02:37:59.138Z,1.03
2019-03-06T02:40:29.340Z,0.90
2019-03-06T02:42:59.582Z,1.00
2019-03-06T02:45:29.810Z,0.80
2019-03-06T02:48:02.213Z,1.03
2019-03-06T02:50:32.721Z,1.23
2019-03-06T02:53:02.988Z,1.53
2019-03-06T02:55:33.530Z,1.47
2019-03-06T02:58:15.804Z,1.37
2019-03-06T03:00:57.573Z,1.20
2019-03-06T03:03:49.721Z,1.30
2019-03-06T03:06:29.943Z,1.30
2019-03-06T03:09:03.007Z,1.60
2019-03-06T03:11:35.527Z,1.30
2019-03-06T03:14:05.823Z,1.30
2019-03-06T03:16:36.845Z,1.20
2019-03-06T03:19:07.753Z,1.23
2019-03-06T03:21:38.423Z,0.90
2019-03-06T03:24:08.968Z,1.03
2019-03-06T03:26:43.529Z,1.07
2019-03-06T03:29:13.786Z,1.10
2019-03-06T03:31:45.842Z,1.00
2019-03-06T03:34:16.038Z,0.87
2019-03-06T03:36:46.192Z,0.87
2019-03-06T03:39:16.366Z,1.10
2019-03-06T03:41:46.693Z,0.97
2019-03-06T03:44:16.810Z,1.00
2019-03-06T03:46:47.391Z,0.87
2019-03-06T03:49:17.924Z,0.80
2019-03-06T03:51:48.541Z,0.83
2019-03-06T03:54:18.778Z,1.00
2019-03-06T03:56:49.929Z,1.60
2019-03-06T03:59:20.055Z,2.90
2019-03-06T04:01:51.591Z,2.60
2019-03-06T04:04:21.803Z,2.03
2019-03-06T04:06:52.232Z,2.23
2019-03-06T04:09:22.449Z,2.10
2019-03-06T04:11:53.037Z,2.10
2019-03-06T04:14:23.228Z,1.50
2019-03-06T04:16:54.505Z,1.27
2019-03-06T04:19:25.351Z,1.60
2019-03-06T04:21:55.954Z,1.20
2019-03-06T04:24:26.580Z,1.43
2019-03-06T04:26:56.891Z,1.30
2019-03-06T04:29:39.279Z,1.10
2019-03-06T04:32:09.794Z,1.30
2019-03-06T04:34:41.469Z,1.60
2019-03-06T04:37:12.183Z,1.30
2019-03-06T04:39:42.466Z,1.43
2019-03-06T04:42:13.409Z,1.90
2019-03-06T04:44:43.692Z,1.50
2019-03-06T04:47:14.225Z,1.50
2019-03-06T04:49:52.401Z,1.10
2019-03-06T04:52:17.462Z,1.40
2019-03-06T04:54:48.608Z,1.10
2019-03-06T04:57:18.912Z,1.17
2019-03-06T04:59:49.409Z,1.40
2019-03-06T05:02:19.627Z,2.20
2019-03-06T05:04:51.423Z,1.80
2019-03-06T05:07:21.727Z,1.83
2019-03-06T05:09:52.906Z,2.40
2019-03-06T05:12:23.198Z,1.53
2019-03-06T05:14:53.927Z,1.47
2019-03-06T05:17:43.082Z,1.93
2019-03-06T05:20:13.522Z,2.00
2019-03-06T05:22:43.905Z,1.70
2019-03-06T05:25:14.582Z,1.50
2019-03-06T05:27:45.198Z,1.30
2019-03-06T05:30:15.167Z,1.40
2019-03-06T05:32:46.523Z,1.13
2019-03-06T05:35:26.246Z,1.00
2019-03-06T05:38:06.122Z,1.00
2019-03-06T05:40:36.436Z,1.30
2019-03-06T05:43:06.975Z,1.00
2019-03-06T05:45:37.268Z,1.00
2019-03-06T05:48:08.774Z,0.90
2019-03-06T05:50:39.343Z,1.00
2019-03-06T05:53:09.998Z,1.20
2019-03-06T05:55:40.690Z,1.20
2019-03-06T05:58:14.049Z,1.60
2019-03-06T06:00:45.570Z,1.43
2019-03-06T06:03:16.205Z,1.20
2019-03-06T06:05:47.003Z,1.30
2019-03-06T06:08:18.025Z,1.97
2019-03-06T06:10:48.212Z,1.50
2019-03-06T06:13:19.054Z,1.20
2019-03-06T06:15:49.490Z,1.40
2019-03-06T06:18:21.930Z,1.10
2019-03-06T06:21:04.811Z,1.33
2019-03-06T06:23:45.958Z,1.47
2019-03-06T06:26:16.262Z,1.30
2019-03-06T06:28:47.744Z,1.30
2019-03-06T06:31:18.059Z,1.50
2019-03-06T06:33:51.239Z,1.30
2019-03-06T06:36:21.916Z,1.30
2019-03-06T06:38:55.897Z,1.37
2019-03-06T06:41:27.528Z,1.90
2019-03-06T06:43:58.444Z,2.30
2019-03-06T06:46:30.058Z,1.80
2019-03-06T06:49:00.771Z,2.03
2019-03-06T06:52:07.894Z,2.00
2019-03-06T06:55:17.908Z,1.70
2019-03-06T06:58:32.191Z,2.20
2019-03-06T07:01:59.954Z,2.00
2019-03-06T07:05:27.037Z,2.30
2019-03-06T07:08:26.419Z,1.90
2019-03-06T07:11:01.346Z,1.80
2019-03-06T07:13:53.449Z,1.60
2019-03-06T07:16:35.302Z,1.80
2019-03-06T07:19:11.145Z,1.70
2019-03-06T07:22:05.815Z,1.80
2019-03-06T07:24:59.691Z,1.97
2019-03-06T07:27:44.880Z,1.90
2019-03-06T07:30:29.832Z,1.97
2019-03-06T07:33:20.403Z,2.53
2019-03-06T07:36:29.725Z,1.90
2019-03-06T07:39:17.539Z,9.27
2019-03-06T07:42:04.755Z,2.53
2019-03-06T07:44:56.881Z,2.23
2019-03-06T07:47:44.015Z,2.20
2019-03-06T07:50:33.589Z,3.20
2019-03-06T07:54:01.426Z,3.70
2019-03-06T07:56:35.267Z,3.23
2019-03-06T07:59:09.849Z,2.57
2019-03-06T08:01:49.591Z,2.73
2019-03-06T08:04:20.134Z,2.93
2019-03-06T08:07:05.600Z,3.03
2019-03-06T08:09:36.350Z,2.30
2019-03-06T08:12:12.839Z,2.10
2019-03-06T08:15:02.334Z,2.87
2019-03-06T08:17:56.661Z,2.57
2019-03-06T08:20:45.147Z,2.40
2019-03-06T08:23:34.456Z,2.20
2019-03-06T08:26:07.011Z,2.10
2019-03-06T08:28:37.497Z,1.53
2019-03-06T08:31:25.547Z,2.67
2019-03-06T08:33:56.090Z,1.90
2019-03-06T08:36:27.286Z,1.73
2019-03-06T08:38:58.143Z,2.80
2019-03-06T08:41:29.820Z,2.50
2019-03-06T08:44:00.251Z,2.67
2019-03-06T08:46:44.438Z,2.40
2019-03-06T08:49:36.806Z,2.43
2019-03-06T08:52:26.319Z,2.00
2019-03-06T08:55:14.370Z,1.90
2019-03-06T08:58:01.161Z,2.20
2019-03-06T09:00:56.474Z,1.80
2019-03-06T09:03:45.123Z,1.70
2019-03-06T09:06:34.200Z,2.00
2019-03-06T09:09:29.095Z,2.03
2019-03-06T09:12:16.961Z,1.93
2019-03-06T09:15:06.798Z,4.00
2019-03-06T09:18:08.778Z,1.93
2019-03-06T09:21:11.129Z,1.70
2019-03-06T09:24:03.820Z,1.47
2019-03-06T09:26:54.977Z,2.50
2019-03-06T09:29:39.505Z,1.57
2019-03-06T09:32:43.711Z,2.07
2019-03-06T09:35:33.048Z,1.77
2019-03-06T09:38:35.440Z,2.10
2019-03-06T09:41:17.801Z,2.10
2019-03-06T09:43:56.289Z,2.33
2019-03-06T09:46:33.222Z,2.20
2019-03-06T09:49:21.822Z,2.10
2019-03-06T09:52:13.848Z,2.13
2019-03-06T09:55:05.405Z,2.13
2019-03-06T09:57:54.557Z,2.20
2019-03-06T10:00:46.945Z,2.37
2019-03-06T10:03:35.222Z,3.00
2019-03-06T10:06:27.542Z,3.57
2019-03-06T10:09:20.686Z,3.70
2019-03-06T10:12:13.935Z,3.10
2019-03-06T10:15:02.605Z,3.10
2019-03-06T10:17:44.243Z,3.03
2019-03-06T10:20:24.768Z,3.33
2019-03-06T10:22:49.587Z,3.40
2019-03-06T10:25:29.595Z,3.07
2019-03-06T10:27:52.213Z,3.30
2019-03-06T10:30:22.630Z,3.47
2019-03-06T10:32:53.384Z,3.43
2019-03-06T10:35:24.044Z,3.70
2019-03-06T10:37:54.873Z,3.07
2019-03-06T10:40:25.216Z,3.27
2019-03-06T10:42:56.205Z,3.33
2019-03-06T10:45:28.148Z,3.50
2019-03-06T10:47:58.878Z,3.13
2019-03-06T10:50:31.226Z,3.30
2019-03-06T10:53:02.609Z,2.90
2019-03-06T10:55:33.116Z,2.80
2019-03-06T10:58:06.471Z,3.27
2019-03-06T11:00:40.674Z,2.90
2019-03-06T11:03:14.942Z,3.00
2019-03-06T11:05:45.379Z,2.70
2019-03-06T11:08:16.932Z,2.70
2019-03-06T11:10:47.315Z,2.87
2019-03-06T11:13:18.952Z,3.70
2019-03-06T11:15:55.625Z,3.40
2019-03-06T11:18:21.728Z,2.80
2019-03-06T11:20:52.170Z,3.43
2019-03-06T11:23:22.758Z,2.80
2019-03-06T11:25:56.520Z,2.63
2019-03-06T11:28:27.101Z,2.90
2019-03-06T11:30:58.130Z,3.00
2019-03-06T11:33:29.308Z,2.83
2019-03-06T11:36:01.401Z,2.60
2019-03-06T11:38:31.986Z,2.80
2019-03-06T11:41:02.437Z,2.83
2019-03-06T11:43:32.964Z,2.93
2019-03-06T11:46:05.861Z,2.60
2019-03-06T11:48:36.257Z,3.13
2019-03-06T11:51:08.546Z,3.00
2019-03-06T11:53:39.740Z,2.70
2019-03-06T11:56:10.790Z,2.60
2019-03-06T11:58:43.521Z,2.70
2019-03-06T12:01:25.292Z,2.90
2019-03-06T12:03:56.764Z,2.73
2019-03-06T12:06:27.303Z,3.10
2019-03-06T12:09:00.174Z,2.30
2019-03-06T12:11:36.189Z,2.97
2019-03-06T12:14:08.420Z,2.90
2019-03-06T12:16:41.822Z,2.80
2019-03-06T12:19:10.854Z,2.40
2019-03-06T12:21:41.929Z,2.70
2019-03-06T12:24:14.041Z,2.50
2019-03-06T12:26:44.622Z,3.00
2019-03-06T12:29:18.029Z,2.83
2019-03-06T12:31:48.430Z,2.93
2019-03-06T12:34:20.365Z,2.80
2019-03-06T12:36:50.973Z,2.67
2019-03-06T12:39:23.376Z,3.00
2019-03-06T12:41:53.901Z,2.73
2019-03-06T12:44:24.537Z,2.80
2019-03-06T12:46:56.399Z,2.80
2019-03-06T12:49:28.380Z,2.90
2019-03-06T12:51:58.881Z,3.03
2019-03-06T12:54:29.619Z,3.17
2019-03-06T12:57:00.119Z,2.80
2019-03-06T12:59:31.427Z,3.07
2019-03-06T13:02:01.933Z,3.17
2019-03-06T13:04:32.655Z,2.80
2019-03-06T13:07:03.229Z,3.30
2019-03-06T13:09:34.159Z,3.00
2019-03-06T13:12:04.455Z,2.90
2019-03-06T13:14:34.996Z,2.87
2019-03-06T13:17:05.445Z,2.97
2019-03-06T13:19:35.884Z,2.80
2019-03-06T13:22:11.433Z,3.10
2019-03-06T13:24:41.049Z,3.10
2019-03-06T13:27:11.346Z,2.80
2019-03-06T13:29:42.670Z,2.87
2019-03-06T13:32:14.230Z,3.07
2019-03-06T13:34:51.310Z,2.60
2019-03-06T13:37:20.195Z,2.83
2019-03-06T13:39:52.171Z,2.63
2019-03-06T13:42:22.513Z,3.10
2019-03-06T13:44:54.238Z,3.20
2019-03-06T13:47:26.794Z,2.83
2019-03-06T13:49:57.791Z,3.20
2019-03-06T13:52:28.037Z,2.57
2019-03-06T13:54:58.442Z,2.80
2019-03-06T13:57:28.829Z,2.80
2019-03-06T13:59:59.442Z,2.50
2019-03-06T14:02:29.996Z,2.33
2019-03-06T14:05:00.344Z,2.43
2019-03-06T14:07:30.796Z,2.60
2019-03-06T14:10:01.377Z,2.80
2019-03-06T14:12:31.797Z,2.20
2019-03-06T14:15:02.585Z,2.20
2019-03-06T14:17:35.054Z,2.20
2019-03-06T14:20:08.142Z,2.23
2019-03-06T14:22:39.445Z,2.50
2019-03-06T14:25:09.724Z,2.40
2019-03-06T14:27:41.016Z,2.30
2019-03-06T14:30:12.626Z,2.03
2019-03-06T14:32:43.225Z,2.50
2019-03-06T14:35:14.122Z,2.40
2019-03-06T14:37:44.721Z,2.20
2019-03-06T14:40:20.635Z,2.07
2019-03-06T14:42:51.079Z,2.20
2019-03-06T14:45:23.753Z,2.07
2019-03-06T14:47:54.236Z,2.20
2019-03-06T14:50:24.950Z,2.30
2019-03-06T14:52:55.342Z,2.20
2019-03-06T14:55:26.044Z,2.17
2019-03-06T14:57:57.978Z,2.23
2019-03-06T15:00:29.513Z,2.03
2019-03-06T15:02:59.876Z,2.00
2019-03-06T15:05:31.227Z,1.83
2019-03-06T15:08:03.672Z,2.00
2019-03-06T15:10:42.706Z,1.70
2019-03-06T15:13:07.103Z,2.00
2019-03-06T15:15:37.892Z,2.10
2019-03-06T15:18:10.956Z,1.70
2019-03-06T15:20:41.415Z,1.97
2019-03-06T15:23:12.000Z,1.97
2019-03-06T15:25:42.670Z,1.90
2019-03-06T15:28:13.450Z,1.67
2019-03-06T15:30:44.689Z,2.07
2019-03-06T15:33:15.011Z,2.37
2019-03-06T15:35:46.019Z,1.90
2019-03-06T15:38:16.316Z,2.10
2019-03-06T15:40:47.010Z,3.33
2019-03-06T15:43:18.592Z,2.40
2019-03-06T15:45:50.702Z,2.50
2019-03-06T15:48:21.322Z,2.40
2019-03-06T15:50:52.285Z,2.23
2019-03-06T15:53:24.585Z,2.10
2019-03-06T15:55:55.411Z,2.20
2019-03-06T15:58:25.868Z,2.33
2019-03-06T16:00:56.500Z,2.00
2019-03-06T16:03:26.998Z,2.00
2019-03-06T16:05:58.830Z,2.50
2019-03-06T16:08:29.414Z,2.27
2019-03-06T16:11:00.954Z,4.90
2019-03-06T16:13:31.478Z,2.40
2019-03-06T16:16:02.903Z,3.10
2019-03-06T16:18:36.187Z,2.30
2019-03-06T16:21:10.467Z,2.27
2019-03-06T16:23:40.679Z,2.33
2019-03-06T16:26:11.505Z,2.30
2019-03-06T16:28:41.762Z,2.40
2019-03-06T16:31:12.869Z,2.27
2019-03-06T16:33:43.561Z,2.50
2019-03-06T16:36:14.529Z,2.40
2019-03-06T16:38:44.890Z,2.17
2019-03-06T16:41:18.262Z,2.03
2019-03-06T16:43:48.508Z,2.10
2019-03-06T16:46:18.853Z,2.27
2019-03-06T16:48:49.140Z,2.50
2019-03-06T16:51:20.882Z,2.90
2019-03-06T16:53:51.086Z,3.40
2019-03-06T16:56:22.833Z,2.43
2019-03-06T16:58:53.119Z,2.10
2019-03-06T17:01:25.613Z,2.70
2019-03-06T17:03:56.187Z,2.57
2019-03-06T17:06:26.982Z,2.73
2019-03-06T17:08:57.379Z,2.60
2019-03-06T17:11:29.988Z,2.90
2019-03-06T17:14:00.344Z,2.50
2019-03-06T17:16:30.977Z,2.73
2019-03-06T17:19:01.259Z,2.70
2019-03-06T17:21:32.306Z,2.50
2019-03-06T17:24:12.637Z,2.23
2019-03-06T17:26:43.751Z,3.10
2019-03-06T17:29:14.849Z,2.50
2019-03-06T17:31:45.708Z,2.60
2019-03-06T17:34:16.139Z,1.87
2019-03-06T17:36:47.038Z,2.20
2019-03-06T17:39:17.346Z,2.20
2019-03-06T17:41:47.616Z,2.27
2019-03-06T17:44:18.264Z,3.50
2019-03-06T17:46:48.581Z,2.77
2019-03-06T17:49:19.211Z,2.83
2019-03-06T17:51:49.634Z,3.07
2019-03-06T17:54:20.352Z,3.13
2019-03-06T17:56:50.831Z,3.00
2019-03-06T17:59:21.558Z,2.63
2019-03-06T18:01:51.950Z,3.00
2019-03-06T18:04:23.836Z,3.20
2019-03-06T18:06:54.687Z,3.00
2019-03-06T18:09:25.144Z,3.20
2019-03-06T18:11:55.408Z,2.90
2019-03-06T18:14:26.603Z,2.70
2019-03-06T18:16:56.936Z,2.70
2019-03-06T18:19:27.663Z,2.90
2019-03-06T18:21:58.001Z,3.20
2019-03-06T18:24:28.563Z,2.50
2019-03-06T18:27:02.293Z,2.63
2019-03-06T18:29:32.902Z,2.90
2019-03-06T18:32:03.620Z,2.80
2019-03-06T18:34:33.895Z,2.90
2019-03-06T18:37:04.288Z,2.40
2019-03-06T18:39:34.795Z,2.40
2019-03-06T18:42:05.339Z,2.90
2019-03-06T18:44:35.711Z,3.13
2019-03-06T18:47:06.072Z,3.00
2019-03-06T18:49:36.248Z,3.80
2019-03-06T18:52:06.824Z,2.70
2019-03-06T18:54:37.226Z,3.17
2019-03-06T18:57:07.885Z,2.50
2019-03-06T18:59:38.141Z,2.53
2019-03-06T19:02:08.741Z,2.70
2019-03-06T19:04:39.464Z,2.33
2019-03-06T19:07:10.029Z,9.83
2019-03-06T19:09:40.370Z,10.30
2019-03-06T19:12:10.891Z,6.80
2019-03-06T19:14:42.478Z,6.57
2019-03-06T19:17:14.487Z,5.73
2019-03-06T19:19:44.862Z,4.40
2019-03-06T19:22:17.873Z,5.20
2019-03-06T19:24:48.459Z,3.90
2019-03-06T19:27:18.978Z,4.07
2019-03-06T19:29:50.362Z,4.10
2019-03-06T19:32:21.061Z,3.77
2019-03-06T19:34:52.002Z,3.63
2019-03-06T19:37:22.171Z,4.07
2019-03-06T19:39:52.788Z,3.80
2019-03-06T19:42:22.997Z,3.90
2019-03-06T19:44:53.506Z,3.70
2019-03-06T19:47:24.926Z,3.90
2019-03-06T19:49:58.529Z,3.70
2019-03-06T19:52:29.099Z,3.53
2019-03-06T19:54:59.931Z,3.87
2019-03-06T19:57:44.488Z,3.20
2019-03-06T20:00:15.574Z,3.40
2019-03-06T20:02:45.764Z,4.37
2019-03-06T20:05:16.585Z,3.87
2019-03-06T20:07:47.302Z,3.60
2019-03-06T20:10:19.511Z,4.17
2019-03-06T20:12:51.139Z,5.73
2019-03-06T20:15:21.585Z,5.83
2019-03-06T20:17:53.964Z,5.60
2019-03-06T20:20:24.200Z,5.37
2019-03-06T20:22:55.326Z,4.20
2019-03-06T20:25:25.812Z,4.63
2019-03-06T20:27:56.472Z,4.60
2019-03-06T20:30:26.935Z,3.90
2019-03-06T20:32:57.561Z,5.03
2019-03-06T20:35:28.165Z,4.87
2019-03-06T20:37:58.775Z,4.20
2019-03-06T20:40:29.153Z,3.50
2019-03-06T20:42:59.661Z,3.43
2019-03-06T20:45:30.139Z,3.40
2019-03-06T20:48:01.885Z,3.93
2019-03-06T20:50:34.422Z,3.27
2019-03-06T20:53:04.203Z,3.30
2019-03-06T20:55:34.898Z,3.30
2019-03-06T20:58:05.391Z,3.37
2019-03-06T21:00:35.908Z,3.47
2019-03-06T21:03:07.253Z,3.73
2019-03-06T21:05:39.209Z,3.30
2019-03-06T21:08:09.980Z,4.27
2019-03-06T21:10:40.716Z,3.90
2019-03-06T21:13:11.002Z,3.37
2019-03-06T21:15:42.255Z,4.27
2019-03-06T21:18:13.841Z,3.73
2019-03-06T21:20:44.308Z,4.23
2019-03-06T21:23:15.940Z,5.00
2019-03-06T21:25:46.556Z,6.53
2019-03-06T21:28:18.100Z,6.60
2019-03-06T21:30:49.318Z,7.20
2019-03-06T21:33:22.301Z,5.73
2019-03-06T21:35:53.681Z,6.23
2019-03-06T21:38:28.878Z,4.33
2019-03-06T21:41:00.974Z,4.00
2019-03-06T21:43:32.885Z,4.13
2019-03-06T21:46:03.088Z,3.67
2019-03-06T21:48:33.844Z,3.87
2019-03-06T21:51:05.401Z,3.60
2019-03-06T21:53:36.263Z,3.60
2019-03-06T21:56:06.619Z,3.80
2019-03-06T21:58:37.188Z,3.67
2019-03-06T22:01:07.694Z,4.10
2019-03-06T22:03:38.341Z,4.00
2019-03-06T22:06:08.798Z,3.60
2019-03-06T22:08:39.609Z,4.20
2019-03-06T22:11:09.936Z,4.80
2019-03-06T22:13:40.682Z,4.10
2019-03-06T22:16:11.550Z,3.80
2019-03-06T22:18:42.408Z,4.30
2019-03-06T22:21:12.744Z,4.40
2019-03-06T22:23:43.418Z,4.70
2019-03-06T22:26:13.674Z,4.53
2019-03-06T22:28:44.475Z,4.60
2019-03-06T22:31:14.728Z,4.23
2019-03-06T22:33:45.119Z,4.20
2019-03-06T22:36:15.222Z,4.10
2019-03-06T22:38:45.650Z,3.60
2019-03-06T22:41:15.841Z,3.57
2019-03-06T22:43:46.210Z,5.00
2019-03-06T22:46:16.487Z,4.83
2019-03-06T22:48:46.734Z,4.57
2019-03-06T22:51:17.167Z,4.30
2019-03-06T22:53:47.564Z,4.10
2019-03-06T22:56:18.514Z,4.00
2019-03-06T22:58:49.196Z,3.80
2019-03-06T23:01:25.958Z,3.60
2019-03-06T23:04:00.276Z,3.83
2019-03-06T23:06:30.634Z,3.57
2019-03-06T23:09:00.814Z,4.33
2019-03-06T23:11:32.768Z,4.27
2019-03-06T23:14:03.044Z,3.93
2019-03-06T23:16:34.423Z,3.80
2019-03-06T23:19:05.549Z,3.80
2019-03-06T23:21:35.795Z,3.90
2019-03-06T23:24:09.476Z,3.67
2019-03-06T23:26:43.098Z,3.50
2019-03-06T23:29:13.407Z,3.93
2019-03-06T23:31:44.191Z,3.97
2019-03-06T23:34:14.732Z,4.20
2019-03-06T23:36:44.902Z,4.27
2019-03-06T23:39:14.998Z,3.97
2019-03-06T23:41:45.503Z,4.10
2019-03-06T23:44:16.371Z,4.33
2019-03-06T23:46:46.917Z,4.30
2019-03-06T23:49:17.239Z,3.90
2019-03-06T23:51:50.532Z,4.23
2019-03-06T23:54:20.736Z,4.30
2019-03-06T23:56:51.509Z,3.47
2019-03-06T23:59:22.713Z,3.90
